sensor_id;sensor_type;location;lat;lon;timestamp;P1;durP1;ratioP1;P2;durP2;ratioP2
5718;SDS011;2884;47.734;9.244;2022-08-04T00:01:10;3.77;;;2.30;;
5718;SDS011;2884;47.734;9.244;2022-08-04T00:03:42;2.70;;;2.00;;
5718;SDS011;2884;47.734;9.244;2022-08-04T00:06:23;2.53;;;2.30;;
5718;SDS011;2884;47.734;9.244;2022-08-04T00:09:02;3.33;;;2.77;;
5718;SDS011;2884;47.734;9.244;2022-08-04T00:11:30;4.23;;;2.80;;
5718;SDS011;2884;47.734;9.244;2022-08-04T00:14:01;2.50;;;2.30;;
5718;SDS011;2884;47.734;9.244;2022-08-04T00:16:28;4.10;;;2.93;;
5718;SDS011;2884;47.734;9.244;2022-08-04T00:19:00;4.20;;;3.50;;
5718;SDS011;2884;47.734;9.244;2022-08-04T00:21:28;4.70;;;3.50;;
5718;SDS011;2884;47.734;9.244;2022-08-04T00:23:56;3.40;;;3.10;;
5718;SDS011;2884;47.734;9.244;2022-08-04T00:26:23;4.40;;;3.13;;
5718;SDS011;2884;47.734;9.244;2022-08-04T00:28:49;3.57;;;3.00;;
5718;SDS011;2884;47.734;9.244;2022-08-04T00:31:15;3.10;;;2.80;;
5718;SDS011;2884;47.734;9.244;2022-08-04T00:33:44;3.40;;;3.10;;
5718;SDS011;2884;47.734;9.244;2022-08-04T00:36:10;3.20;;;2.63;;
5718;SDS011;2884;47.734;9.244;2022-08-04T00:38:36;8.37;;;2.80;;
5718;SDS011;2884;47.734;9.244;2022-08-04T00:43:51;6.53;;;3.17;;
5718;SDS011;2884;47.734;9.244;2022-08-04T00:46:40;3.40;;;2.73;;
5718;SDS011;2884;47.734;9.244;2022-08-04T00:51:55;7.23;;;2.60;;
5718;SDS011;2884;47.734;9.244;2022-08-04T01:00:32;4.00;;;3.20;;
5718;SDS011;2884;47.734;9.244;2022-08-04T01:05:54;2.80;;;2.60;;
5718;SDS011;2884;47.734;9.244;2022-08-04T01:13:57;2.50;;;2.30;;
5718;SDS011;2884;47.734;9.244;2022-08-04T01:16:30;3.60;;;2.67;;
5718;SDS011;2884;47.734;9.244;2022-08-04T01:19:05;2.80;;;2.33;;
5718;SDS011;2884;47.734;9.244;2022-08-04T01:21:43;5.27;;;2.80;;
5718;SDS011;2884;47.734;9.244;2022-08-04T01:24:18;3.53;;;2.40;;
5718;SDS011;2884;47.734;9.244;2022-08-04T01:26:52;4.70;;;2.97;;
5718;SDS011;2884;47.734;9.244;2022-08-04T01:29:22;3.37;;;2.50;;
5718;SDS011;2884;47.734;9.244;2022-08-04T01:31:54;2.77;;;2.57;;
5718;SDS011;2884;47.734;9.244;2022-08-04T01:34:33;5.10;;;2.40;;
5718;SDS011;2884;47.734;9.244;2022-08-04T01:40:05;3.40;;;2.30;;
5718;SDS011;2884;47.734;9.244;2022-08-04T01:42:33;2.07;;;1.90;;
5718;SDS011;2884;47.734;9.244;2022-08-04T01:45:04;4.50;;;2.70;;
5718;SDS011;2884;47.734;9.244;2022-08-04T01:47:33;8.87;;;3.00;;
5718;SDS011;2884;47.734;9.244;2022-08-04T01:50:17;4.90;;;2.57;;
5718;SDS011;2884;47.734;9.244;2022-08-04T01:52:44;5.03;;;2.80;;
5718;SDS011;2884;47.734;9.244;2022-08-04T01:55:11;5.20;;;3.00;;
5718;SDS011;2884;47.734;9.244;2022-08-04T01:57:42;7.13;;;2.80;;
5718;SDS011;2884;47.734;9.244;2022-08-04T02:00:10;6.63;;;2.97;;
5718;SDS011;2884;47.734;9.244;2022-08-04T02:02:37;8.17;;;3.40;;
5718;SDS011;2884;47.734;9.244;2022-08-04T02:05:02;3.07;;;2.83;;
5718;SDS011;2884;47.734;9.244;2022-08-04T02:10:29;2.70;;;2.50;;
5718;SDS011;2884;47.734;9.244;2022-08-04T02:13:13;8.47;;;3.10;;
5718;SDS011;2884;47.734;9.244;2022-08-04T02:18:18;2.80;;;2.60;;
5718;SDS011;2884;47.734;9.244;2022-08-04T02:20:48;3.10;;;2.53;;
5718;SDS011;2884;47.734;9.244;2022-08-04T02:23:15;4.17;;;2.50;;
5718;SDS011;2884;47.734;9.244;2022-08-04T02:25:48;4.60;;;2.70;;
5718;SDS011;2884;47.734;9.244;2022-08-04T02:28:21;6.50;;;2.83;;
5718;SDS011;2884;47.734;9.244;2022-08-04T02:33:35;7.17;;;3.57;;
5718;SDS011;2884;47.734;9.244;2022-08-04T02:36:04;5.67;;;3.90;;
5718;SDS011;2884;47.734;9.244;2022-08-04T02:38:44;5.23;;;3.67;;
5718;SDS011;2884;47.734;9.244;2022-08-04T02:41:15;7.47;;;3.97;;
5718;SDS011;2884;47.734;9.244;2022-08-04T02:43:42;6.13;;;3.20;;
5718;SDS011;2884;47.734;9.244;2022-08-04T02:46:08;3.73;;;2.70;;
5718;SDS011;2884;47.734;9.244;2022-08-04T02:48:34;3.60;;;3.30;;
5718;SDS011;2884;47.734;9.244;2022-08-04T02:51:01;4.13;;;3.20;;
5718;SDS011;2884;47.734;9.244;2022-08-04T02:53:27;7.23;;;3.17;;
5718;SDS011;2884;47.734;9.244;2022-08-04T02:56:00;5.20;;;2.90;;
5718;SDS011;2884;47.734;9.244;2022-08-04T02:58:28;5.07;;;3.13;;
5718;SDS011;2884;47.734;9.244;2022-08-04T03:00:59;8.03;;;3.67;;
5718;SDS011;2884;47.734;9.244;2022-08-04T03:03:29;5.43;;;3.70;;
5718;SDS011;2884;47.734;9.244;2022-08-04T03:25:22;6.37;;;2.87;;
5718;SDS011;2884;47.734;9.244;2022-08-04T03:28:10;5.60;;;3.10;;
5718;SDS011;2884;47.734;9.244;2022-08-04T03:30:51;2.30;;;2.10;;
5718;SDS011;2884;47.734;9.244;2022-08-04T03:33:44;3.47;;;2.63;;
5718;SDS011;2884;47.734;9.244;2022-08-04T03:48:03;2.80;;;2.47;;
5718;SDS011;2884;47.734;9.244;2022-08-04T03:50:45;4.13;;;2.77;;
5718;SDS011;2884;47.734;9.244;2022-08-04T03:54:21;5.20;;;2.73;;
5718;SDS011;2884;47.734;9.244;2022-08-04T03:59:57;4.70;;;2.90;;
5718;SDS011;2884;47.734;9.244;2022-08-04T04:05:28;2.83;;;2.57;;
5718;SDS011;2884;47.734;9.244;2022-08-04T04:08:02;3.57;;;2.80;;
5718;SDS011;2884;47.734;9.244;2022-08-04T04:38:01;3.23;;;2.93;;
5718;SDS011;2884;47.734;9.244;2022-08-04T04:45:59;6.37;;;3.03;;
5718;SDS011;2884;47.734;9.244;2022-08-04T04:49:13;4.80;;;3.37;;
5718;SDS011;2884;47.734;9.244;2022-08-04T04:51:24;3.00;;;2.80;;
5718;SDS011;2884;47.734;9.244;2022-08-04T04:56:52;3.00;;;2.80;;
5718;SDS011;2884;47.734;9.244;2022-08-04T04:59:31;3.00;;;2.77;;
5718;SDS011;2884;47.734;9.244;2022-08-04T05:02:12;3.87;;;2.80;;
5718;SDS011;2884;47.734;9.244;2022-08-04T05:18:41;2.90;;;2.50;;
5718;SDS011;2884;47.734;9.244;2022-08-04T05:21:51;2.93;;;2.73;;
5718;SDS011;2884;47.734;9.244;2022-08-04T05:24:05;7.07;;;2.80;;
5718;SDS011;2884;47.734;9.244;2022-08-04T05:26:34;1.97;;;1.87;;
5718;SDS011;2884;47.734;9.244;2022-08-04T05:29:08;2.30;;;2.10;;
5718;SDS011;2884;47.734;9.244;2022-08-04T05:31:37;2.53;;;2.27;;
5718;SDS011;2884;47.734;9.244;2022-08-04T05:34:10;4.07;;;2.30;;
5718;SDS011;2884;47.734;9.244;2022-08-04T05:36:43;3.40;;;1.87;;
5718;SDS011;2884;47.734;9.244;2022-08-04T05:39:19;2.93;;;2.17;;
5718;SDS011;2884;47.734;9.244;2022-08-04T05:41:47;5.77;;;2.40;;
5718;SDS011;2884;47.734;9.244;2022-08-04T05:44:15;3.47;;;2.10;;
5718;SDS011;2884;47.734;9.244;2022-08-04T05:46:42;3.23;;;2.17;;
5718;SDS011;2884;47.734;9.244;2022-08-04T05:49:11;2.00;;;1.80;;
5718;SDS011;2884;47.734;9.244;2022-08-04T05:51:38;2.83;;;2.23;;
5718;SDS011;2884;47.734;9.244;2022-08-04T05:54:04;5.70;;;1.97;;
5718;SDS011;2884;47.734;9.244;2022-08-04T05:56:30;2.20;;;1.87;;
5718;SDS011;2884;47.734;9.244;2022-08-04T05:58:58;4.43;;;2.00;;
5718;SDS011;2884;47.734;9.244;2022-08-04T06:01:24;3.63;;;2.10;;
5718;SDS011;2884;47.734;9.244;2022-08-04T06:03:51;2.03;;;1.83;;
5718;SDS011;2884;47.734;9.244;2022-08-04T06:06:17;2.87;;;2.00;;
5718;SDS011;2884;47.734;9.244;2022-08-04T06:08:44;5.30;;;1.87;;
5718;SDS011;2884;47.734;9.244;2022-08-04T06:11:09;4.70;;;2.20;;
5718;SDS011;2884;47.734;9.244;2022-08-04T06:13:42;7.63;;;2.53;;
5718;SDS011;2884;47.734;9.244;2022-08-04T06:16:10;13.43;;;2.70;;
5718;SDS011;2884;47.734;9.244;2022-08-04T06:18:40;7.13;;;2.17;;
5718;SDS011;2884;47.734;9.244;2022-08-04T06:21:10;2.63;;;2.20;;
5718;SDS011;2884;47.734;9.244;2022-08-04T06:23:37;3.43;;;1.93;;
5718;SDS011;2884;47.734;9.244;2022-08-04T06:26:05;3.57;;;1.90;;
5718;SDS011;2884;47.734;9.244;2022-08-04T06:28:31;7.23;;;2.00;;
5718;SDS011;2884;47.734;9.244;2022-08-04T06:30:57;4.63;;;2.60;;
5718;SDS011;2884;47.734;9.244;2022-08-04T06:33:28;3.07;;;1.80;;
5718;SDS011;2884;47.734;9.244;2022-08-04T06:35:58;4.20;;;2.10;;
5718;SDS011;2884;47.734;9.244;2022-08-04T06:38:26;2.80;;;1.77;;
5718;SDS011;2884;47.734;9.244;2022-08-04T06:40:53;6.60;;;2.23;;
5718;SDS011;2884;47.734;9.244;2022-08-04T06:43:22;3.73;;;2.03;;
5718;SDS011;2884;47.734;9.244;2022-08-04T06:45:49;2.13;;;1.80;;
5718;SDS011;2884;47.734;9.244;2022-08-04T06:48:16;3.97;;;2.00;;
5718;SDS011;2884;47.734;9.244;2022-08-04T06:50:43;3.37;;;2.40;;
5718;SDS011;2884;47.734;9.244;2022-08-04T06:53:11;3.13;;;1.80;;
5718;SDS011;2884;47.734;9.244;2022-08-04T06:55:38;2.17;;;2.00;;
5718;SDS011;2884;47.734;9.244;2022-08-04T06:58:04;1.73;;;1.63;;
5718;SDS011;2884;47.734;9.244;2022-08-04T07:00:30;2.00;;;1.80;;
5718;SDS011;2884;47.734;9.244;2022-08-04T07:02:56;2.40;;;1.80;;
5718;SDS011;2884;47.734;9.244;2022-08-04T07:05:23;5.00;;;2.70;;
5718;SDS011;2884;47.734;9.244;2022-08-04T07:07:49;2.90;;;2.30;;
5718;SDS011;2884;47.734;9.244;2022-08-04T07:10:15;2.43;;;2.23;;
5718;SDS011;2884;47.734;9.244;2022-08-04T07:12:44;8.73;;;2.20;;
5718;SDS011;2884;47.734;9.244;2022-08-04T07:15:10;6.00;;;2.50;;
5718;SDS011;2884;47.734;9.244;2022-08-04T07:17:35;6.53;;;1.90;;
5718;SDS011;2884;47.734;9.244;2022-08-04T07:20:03;4.10;;;2.40;;
5718;SDS011;2884;47.734;9.244;2022-08-04T07:22:29;4.30;;;2.60;;
5718;SDS011;2884;47.734;9.244;2022-08-04T07:24:56;2.40;;;1.90;;
5718;SDS011;2884;47.734;9.244;2022-08-04T07:27:22;13.83;;;2.77;;
5718;SDS011;2884;47.734;9.244;2022-08-04T07:29:48;6.30;;;3.07;;
5718;SDS011;2884;47.734;9.244;2022-08-04T07:32:15;3.47;;;2.27;;
5718;SDS011;2884;47.734;9.244;2022-08-04T07:34:41;4.43;;;2.40;;
5718;SDS011;2884;47.734;9.244;2022-08-04T07:37:07;2.50;;;2.30;;
5718;SDS011;2884;47.734;9.244;2022-08-04T07:39:33;3.20;;;2.33;;
5718;SDS011;2884;47.734;9.244;2022-08-04T07:42:01;3.07;;;2.27;;
5718;SDS011;2884;47.734;9.244;2022-08-04T07:44:31;3.53;;;2.53;;
5718;SDS011;2884;47.734;9.244;2022-08-04T07:46:59;4.80;;;2.70;;
5718;SDS011;2884;47.734;9.244;2022-08-04T07:49:25;2.50;;;2.30;;
5718;SDS011;2884;47.734;9.244;2022-08-04T07:51:51;4.83;;;2.30;;
5718;SDS011;2884;47.734;9.244;2022-08-04T07:54:17;2.43;;;2.23;;
5718;SDS011;2884;47.734;9.244;2022-08-04T07:56:44;2.37;;;2.17;;
5718;SDS011;2884;47.734;9.244;2022-08-04T07:59:10;4.97;;;2.70;;
5718;SDS011;2884;47.734;9.244;2022-08-04T08:01:36;2.67;;;2.20;;
5718;SDS011;2884;47.734;9.244;2022-08-04T08:04:04;4.20;;;2.80;;
5718;SDS011;2884;47.734;9.244;2022-08-04T08:06:30;2.77;;;2.60;;
5718;SDS011;2884;47.734;9.244;2022-08-04T08:08:56;3.10;;;2.83;;
5718;SDS011;2884;47.734;9.244;2022-08-04T08:11:23;2.93;;;2.73;;
5718;SDS011;2884;47.734;9.244;2022-08-04T08:13:49;2.50;;;2.40;;
5718;SDS011;2884;47.734;9.244;2022-08-04T08:16:15;3.83;;;2.80;;
5718;SDS011;2884;47.734;9.244;2022-08-04T08:18:43;2.90;;;2.33;;
5718;SDS011;2884;47.734;9.244;2022-08-04T08:21:09;5.63;;;2.90;;
5718;SDS011;2884;47.734;9.244;2022-08-04T08:23:34;2.33;;;2.10;;
5718;SDS011;2884;47.734;9.244;2022-08-04T08:26:01;3.53;;;2.63;;
5718;SDS011;2884;47.734;9.244;2022-08-04T08:28:27;2.60;;;2.40;;
5718;SDS011;2884;47.734;9.244;2022-08-04T08:30:52;2.83;;;2.43;;
5718;SDS011;2884;47.734;9.244;2022-08-04T08:33:19;2.70;;;2.50;;
5718;SDS011;2884;47.734;9.244;2022-08-04T08:38:24;3.33;;;2.00;;
5718;SDS011;2884;47.734;9.244;2022-08-04T08:40:55;3.33;;;2.60;;
5718;SDS011;2884;47.734;9.244;2022-08-04T09:00:15;5.53;;;2.60;;
5718;SDS011;2884;47.734;9.244;2022-08-04T09:13:44;3.23;;;2.50;;
5718;SDS011;2884;47.734;9.244;2022-08-04T09:16:15;2.33;;;2.13;;
5718;SDS011;2884;47.734;9.244;2022-08-04T09:21:53;2.20;;;2.10;;
5718;SDS011;2884;47.734;9.244;2022-08-04T09:40:37;3.30;;;2.70;;
5718;SDS011;2884;47.734;9.244;2022-08-04T09:46:01;2.90;;;2.70;;
5718;SDS011;2884;47.734;9.244;2022-08-04T10:02:17;7.03;;;2.77;;
5718;SDS011;2884;47.734;9.244;2022-08-04T10:04:46;3.43;;;3.10;;
5718;SDS011;2884;47.734;9.244;2022-08-04T10:27:27;3.57;;;2.40;;
5718;SDS011;2884;47.734;9.244;2022-08-04T10:30:06;3.50;;;2.23;;
5718;SDS011;2884;47.734;9.244;2022-08-04T10:35:13;3.10;;;2.50;;
5718;SDS011;2884;47.734;9.244;2022-08-04T10:51:26;2.60;;;2.50;;
5718;SDS011;2884;47.734;9.244;2022-08-04T10:54:02;2.53;;;2.43;;
5718;SDS011;2884;47.734;9.244;2022-08-04T10:56:40;2.97;;;2.13;;
5718;SDS011;2884;47.734;9.244;2022-08-04T10:59:09;5.77;;;5.37;;
5718;SDS011;2884;47.734;9.244;2022-08-04T11:01:46;2.60;;;2.43;;
5718;SDS011;2884;47.734;9.244;2022-08-04T11:04:28;2.80;;;2.60;;
5718;SDS011;2884;47.734;9.244;2022-08-04T11:07:02;3.70;;;2.30;;
5718;SDS011;2884;47.734;9.244;2022-08-04T11:09:28;3.27;;;2.33;;
5718;SDS011;2884;47.734;9.244;2022-08-04T11:12:13;6.27;;;2.33;;
5718;SDS011;2884;47.734;9.244;2022-08-04T11:14:45;4.10;;;2.87;;
5718;SDS011;2884;47.734;9.244;2022-08-04T11:17:23;2.20;;;2.10;;
5718;SDS011;2884;47.734;9.244;2022-08-04T11:22:38;2.80;;;2.70;;
5718;SDS011;2884;47.734;9.244;2022-08-04T11:25:12;2.53;;;2.40;;
5718;SDS011;2884;47.734;9.244;2022-08-04T11:31:12;2.57;;;2.37;;
5718;SDS011;2884;47.734;9.244;2022-08-04T11:33:26;10.00;;;3.10;;
5718;SDS011;2884;47.734;9.244;2022-08-04T11:36:54;3.57;;;2.33;;
5718;SDS011;2884;47.734;9.244;2022-08-04T11:42:00;4.80;;;2.50;;
5718;SDS011;2884;47.734;9.244;2022-08-04T11:47:54;2.93;;;2.03;;
5718;SDS011;2884;47.734;9.244;2022-08-04T11:50:20;5.10;;;2.27;;
5718;SDS011;2884;47.734;9.244;2022-08-04T11:53:02;3.50;;;2.23;;
5718;SDS011;2884;47.734;9.244;2022-08-04T11:55:28;1.90;;;1.80;;
5718;SDS011;2884;47.734;9.244;2022-08-04T11:57:55;2.43;;;2.30;;
5718;SDS011;2884;47.734;9.244;2022-08-04T12:00:21;2.30;;;1.97;;
5718;SDS011;2884;47.734;9.244;2022-08-04T12:05:27;2.27;;;2.17;;
5718;SDS011;2884;47.734;9.244;2022-08-04T12:08:14;7.10;;;2.00;;
5718;SDS011;2884;47.734;9.244;2022-08-04T12:10:52;1.70;;;1.60;;
5718;SDS011;2884;47.734;9.244;2022-08-04T12:16:35;4.23;;;2.20;;
5718;SDS011;2884;47.734;9.244;2022-08-04T12:19:09;3.97;;;2.20;;
5718;SDS011;2884;47.734;9.244;2022-08-04T12:21:41;2.37;;;2.17;;
5718;SDS011;2884;47.734;9.244;2022-08-04T12:24:30;4.40;;;2.20;;
5718;SDS011;2884;47.734;9.244;2022-08-04T12:26:57;3.23;;;1.83;;
5718;SDS011;2884;47.734;9.244;2022-08-04T12:29:26;2.30;;;2.20;;
5718;SDS011;2884;47.734;9.244;2022-08-04T12:31:57;2.60;;;2.40;;
5718;SDS011;2884;47.734;9.244;2022-08-04T12:34:31;2.50;;;2.30;;
5718;SDS011;2884;47.734;9.244;2022-08-04T12:37:05;2.20;;;1.90;;
5718;SDS011;2884;47.734;9.244;2022-08-04T12:39:35;7.63;;;1.80;;
5718;SDS011;2884;47.734;9.244;2022-08-04T12:42:10;2.20;;;2.00;;
5718;SDS011;2884;47.734;9.244;2022-08-04T12:44:40;5.20;;;3.20;;
5718;SDS011;2884;47.734;9.244;2022-08-04T12:47:07;2.67;;;2.47;;
5718;SDS011;2884;47.734;9.244;2022-08-04T12:49:36;4.83;;;2.17;;
5718;SDS011;2884;47.734;9.244;2022-08-04T12:52:04;2.37;;;2.27;;
5718;SDS011;2884;47.734;9.244;2022-08-04T12:54:34;5.03;;;2.17;;
5718;SDS011;2884;47.734;9.244;2022-08-04T12:57:02;7.40;;;2.60;;
5718;SDS011;2884;47.734;9.244;2022-08-04T12:59:29;3.17;;;1.93;;
5718;SDS011;2884;47.734;9.244;2022-08-04T13:01:54;5.57;;;1.80;;
5718;SDS011;2884;47.734;9.244;2022-08-04T13:04:21;4.57;;;1.80;;
5718;SDS011;2884;47.734;9.244;2022-08-04T13:06:56;13.70;;;2.63;;
5718;SDS011;2884;47.734;9.244;2022-08-04T13:09:25;2.13;;;2.00;;
5718;SDS011;2884;47.734;9.244;2022-08-04T13:11:58;2.40;;;1.70;;
5718;SDS011;2884;47.734;9.244;2022-08-04T13:14:33;2.70;;;1.70;;
5718;SDS011;2884;47.734;9.244;2022-08-04T13:16:59;2.23;;;2.00;;
5718;SDS011;2884;47.734;9.244;2022-08-04T13:19:26;4.03;;;2.40;;
5718;SDS011;2884;47.734;9.244;2022-08-04T13:21:53;2.53;;;1.73;;
5718;SDS011;2884;47.734;9.244;2022-08-04T13:24:21;2.90;;;1.60;;
5718;SDS011;2884;47.734;9.244;2022-08-04T13:26:48;2.30;;;1.53;;
5718;SDS011;2884;47.734;9.244;2022-08-04T13:29:15;1.83;;;1.73;;
5718;SDS011;2884;47.734;9.244;2022-08-04T13:31:42;1.50;;;1.50;;
5718;SDS011;2884;47.734;9.244;2022-08-04T13:34:09;1.40;;;1.30;;
5718;SDS011;2884;47.734;9.244;2022-08-04T13:36:35;4.30;;;1.57;;
5718;SDS011;2884;47.734;9.244;2022-08-04T13:39:03;1.90;;;1.63;;
5718;SDS011;2884;47.734;9.244;2022-08-04T13:41:31;1.73;;;1.60;;
5718;SDS011;2884;47.734;9.244;2022-08-04T13:43:59;2.40;;;1.73;;
5718;SDS011;2884;47.734;9.244;2022-08-04T13:46:30;1.93;;;1.60;;
5718;SDS011;2884;47.734;9.244;2022-08-04T13:48:57;1.60;;;1.50;;
5718;SDS011;2884;47.734;9.244;2022-08-04T13:51:26;1.47;;;1.30;;
5718;SDS011;2884;47.734;9.244;2022-08-04T13:53:56;1.60;;;1.50;;
5718;SDS011;2884;47.734;9.244;2022-08-04T13:56:23;1.67;;;1.30;;
5718;SDS011;2884;47.734;9.244;2022-08-04T13:58:53;1.50;;;1.40;;
5718;SDS011;2884;47.734;9.244;2022-08-04T14:01:21;4.10;;;1.30;;
5718;SDS011;2884;47.734;9.244;2022-08-04T14:06:25;2.40;;;1.30;;
5718;SDS011;2884;47.734;9.244;2022-08-04T14:11:33;4.50;;;1.47;;
5718;SDS011;2884;47.734;9.244;2022-08-04T14:14:05;1.10;;;1.03;;
5718;SDS011;2884;47.734;9.244;2022-08-04T14:16:59;1.30;;;1.20;;
5718;SDS011;2884;47.734;9.244;2022-08-04T14:25:06;1.40;;;1.40;;
5718;SDS011;2884;47.734;9.244;2022-08-04T14:27:47;1.50;;;1.40;;
5718;SDS011;2884;47.734;9.244;2022-08-04T14:32:55;3.30;;;1.27;;
5718;SDS011;2884;47.734;9.244;2022-08-04T14:35:20;1.57;;;1.47;;
5718;SDS011;2884;47.734;9.244;2022-08-04T14:37:56;2.13;;;1.73;;
5718;SDS011;2884;47.734;9.244;2022-08-04T14:40:26;1.17;;;1.17;;
5718;SDS011;2884;47.734;9.244;2022-08-04T14:42:54;3.37;;;1.87;;
5718;SDS011;2884;47.734;9.244;2022-08-04T14:45:26;4.77;;;2.53;;
5718;SDS011;2884;47.734;9.244;2022-08-04T14:47:54;1.73;;;1.07;;
5718;SDS011;2884;47.734;9.244;2022-08-04T14:50:20;1.47;;;1.37;;
5718;SDS011;2884;47.734;9.244;2022-08-04T14:53:03;2.83;;;1.50;;
5718;SDS011;2884;47.734;9.244;2022-08-04T14:55:31;2.67;;;1.83;;
5718;SDS011;2884;47.734;9.244;2022-08-04T14:57:57;4.47;;;2.53;;
5718;SDS011;2884;47.734;9.244;2022-08-04T15:00:24;4.67;;;1.70;;
5718;SDS011;2884;47.734;9.244;2022-08-04T15:02:51;5.00;;;2.10;;
5718;SDS011;2884;47.734;9.244;2022-08-04T15:05:19;3.33;;;1.50;;
5718;SDS011;2884;47.734;9.244;2022-08-04T15:07:46;3.80;;;1.70;;
5718;SDS011;2884;47.734;9.244;2022-08-04T15:10:11;5.90;;;1.23;;
5718;SDS011;2884;47.734;9.244;2022-08-04T15:12:37;1.83;;;1.20;;
5718;SDS011;2884;47.734;9.244;2022-08-04T15:15:03;1.67;;;1.53;;
5718;SDS011;2884;47.734;9.244;2022-08-04T15:17:29;2.43;;;1.40;;
5718;SDS011;2884;47.734;9.244;2022-08-04T15:19:55;1.67;;;1.30;;
5718;SDS011;2884;47.734;9.244;2022-08-04T15:22:21;6.83;;;1.57;;
5718;SDS011;2884;47.734;9.244;2022-08-04T15:24:46;4.10;;;1.50;;
5718;SDS011;2884;47.734;9.244;2022-08-04T15:27:12;6.10;;;1.90;;
5718;SDS011;2884;47.734;9.244;2022-08-04T15:29:40;2.97;;;1.40;;
5718;SDS011;2884;47.734;9.244;2022-08-04T15:32:09;2.07;;;1.53;;
5718;SDS011;2884;47.734;9.244;2022-08-04T15:34:48;3.60;;;3.00;;
5718;SDS011;2884;47.734;9.244;2022-08-04T15:37:17;8.00;;;1.90;;
5718;SDS011;2884;47.734;9.244;2022-08-04T15:42:17;1.17;;;1.17;;
5718;SDS011;2884;47.734;9.244;2022-08-04T15:44:55;1.27;;;1.20;;
5718;SDS011;2884;47.734;9.244;2022-08-04T15:47:35;2.40;;;1.50;;
5718;SDS011;2884;47.734;9.244;2022-08-04T15:50:05;10.60;;;1.50;;
5718;SDS011;2884;47.734;9.244;2022-08-04T16:01:13;1.50;;;1.10;;
5718;SDS011;2884;47.734;9.244;2022-08-04T16:03:46;2.37;;;1.80;;
5718;SDS011;2884;47.734;9.244;2022-08-04T16:18:52;2.70;;;1.50;;
5718;SDS011;2884;47.734;9.244;2022-08-04T16:21:20;1.63;;;1.53;;
5718;SDS011;2884;47.734;9.244;2022-08-04T16:34:51;1.43;;;1.33;;
5718;SDS011;2884;47.734;9.244;2022-08-04T16:37:17;1.57;;;1.00;;
5718;SDS011;2884;47.734;9.244;2022-08-04T16:39:44;4.17;;;1.43;;
5718;SDS011;2884;47.734;9.244;2022-08-04T16:52:48;3.13;;;1.40;;
5718;SDS011;2884;47.734;9.244;2022-08-04T16:55:19;1.60;;;1.50;;
5718;SDS011;2884;47.734;9.244;2022-08-04T16:57:46;2.27;;;1.70;;
5718;SDS011;2884;47.734;9.244;2022-08-04T17:00:12;2.10;;;2.00;;
5718;SDS011;2884;47.734;9.244;2022-08-04T17:02:38;2.30;;;1.73;;
5718;SDS011;2884;47.734;9.244;2022-08-04T17:05:04;3.23;;;1.70;;
5718;SDS011;2884;47.734;9.244;2022-08-04T17:07:48;2.83;;;2.63;;
5718;SDS011;2884;47.734;9.244;2022-08-04T17:10:15;1.47;;;1.37;;
5718;SDS011;2884;47.734;9.244;2022-08-04T17:12:40;1.40;;;1.30;;
5718;SDS011;2884;47.734;9.244;2022-08-04T17:15:19;1.97;;;1.57;;
5718;SDS011;2884;47.734;9.244;2022-08-04T17:17:45;3.23;;;1.83;;
5718;SDS011;2884;47.734;9.244;2022-08-04T17:20:11;6.67;;;1.80;;
5718;SDS011;2884;47.734;9.244;2022-08-04T17:22:37;1.53;;;1.43;;
5718;SDS011;2884;47.734;9.244;2022-08-04T17:25:02;3.37;;;1.40;;
5718;SDS011;2884;47.734;9.244;2022-08-04T17:27:28;3.50;;;1.50;;
5718;SDS011;2884;47.734;9.244;2022-08-04T17:29:54;3.13;;;1.80;;
5718;SDS011;2884;47.734;9.244;2022-08-04T17:32:19;2.17;;;1.30;;
5718;SDS011;2884;47.734;9.244;2022-08-04T17:34:46;2.27;;;1.37;;
5718;SDS011;2884;47.734;9.244;2022-08-04T17:37:16;3.43;;;1.80;;
5718;SDS011;2884;47.734;9.244;2022-08-04T17:39:42;3.93;;;1.60;;
5718;SDS011;2884;47.734;9.244;2022-08-04T17:42:08;1.57;;;1.47;;
5718;SDS011;2884;47.734;9.244;2022-08-04T17:44:42;3.77;;;1.70;;
5718;SDS011;2884;47.734;9.244;2022-08-04T17:47:17;2.10;;;1.70;;
5718;SDS011;2884;47.734;9.244;2022-08-04T17:49:42;3.20;;;1.70;;
5718;SDS011;2884;47.734;9.244;2022-08-04T17:52:18;1.87;;;1.53;;
5718;SDS011;2884;47.734;9.244;2022-08-04T17:54:46;3.97;;;2.20;;
5718;SDS011;2884;47.734;9.244;2022-08-04T17:57:22;2.60;;;1.67;;
5718;SDS011;2884;47.734;9.244;2022-08-04T17:59:52;5.70;;;1.63;;
5718;SDS011;2884;47.734;9.244;2022-08-04T18:02:24;2.73;;;1.67;;
5718;SDS011;2884;47.734;9.244;2022-08-04T18:04:51;2.67;;;1.90;;
5718;SDS011;2884;47.734;9.244;2022-08-04T18:12:23;1.57;;;1.47;;
5718;SDS011;2884;47.734;9.244;2022-08-04T18:14:57;2.60;;;1.67;;
5718;SDS011;2884;47.734;9.244;2022-08-04T18:17:36;1.60;;;1.50;;
5718;SDS011;2884;47.734;9.244;2022-08-04T18:20:13;1.60;;;1.50;;
5718;SDS011;2884;47.734;9.244;2022-08-04T18:22:40;1.70;;;1.60;;
5718;SDS011;2884;47.734;9.244;2022-08-04T18:25:06;1.67;;;1.57;;
5718;SDS011;2884;47.734;9.244;2022-08-04T18:27:33;1.80;;;1.47;;
5718;SDS011;2884;47.734;9.244;2022-08-04T18:29:59;2.10;;;1.30;;
5718;SDS011;2884;47.734;9.244;2022-08-04T18:32:26;2.60;;;1.50;;
5718;SDS011;2884;47.734;9.244;2022-08-04T18:34:53;2.83;;;1.43;;
5718;SDS011;2884;47.734;9.244;2022-08-04T18:37:19;1.83;;;1.73;;
5718;SDS011;2884;47.734;9.244;2022-08-04T18:39:45;2.47;;;1.53;;
5718;SDS011;2884;47.734;9.244;2022-08-04T18:42:11;3.60;;;1.77;;
5718;SDS011;2884;47.734;9.244;2022-08-04T18:44:36;3.53;;;1.70;;
5718;SDS011;2884;47.734;9.244;2022-08-04T18:47:02;1.90;;;1.40;;
5718;SDS011;2884;47.734;9.244;2022-08-04T18:49:29;4.20;;;2.30;;
5718;SDS011;2884;47.734;9.244;2022-08-04T18:51:58;2.87;;;2.10;;
5718;SDS011;2884;47.734;9.244;2022-08-04T18:54:23;2.30;;;2.10;;
5718;SDS011;2884;47.734;9.244;2022-08-04T18:56:50;2.30;;;1.90;;
5718;SDS011;2884;47.734;9.244;2022-08-04T18:59:16;3.60;;;2.13;;
5718;SDS011;2884;47.734;9.244;2022-08-04T19:01:42;3.23;;;2.23;;
5718;SDS011;2884;47.734;9.244;2022-08-04T19:04:08;3.03;;;1.97;;
5718;SDS011;2884;47.734;9.244;2022-08-04T19:06:35;4.00;;;2.73;;
5718;SDS011;2884;47.734;9.244;2022-08-04T19:09:01;2.83;;;2.37;;
5718;SDS011;2884;47.734;9.244;2022-08-04T19:11:28;5.63;;;3.00;;
5718;SDS011;2884;47.734;9.244;2022-08-04T19:13:54;2.80;;;2.60;;
5718;SDS011;2884;47.734;9.244;2022-08-04T19:16:23;3.67;;;3.37;;
5718;SDS011;2884;47.734;9.244;2022-08-04T19:18:49;10.13;;;3.17;;
5718;SDS011;2884;47.734;9.244;2022-08-04T19:21:14;7.30;;;4.77;;
5718;SDS011;2884;47.734;9.244;2022-08-04T19:23:40;6.93;;;4.53;;
5718;SDS011;2884;47.734;9.244;2022-08-04T19:26:05;3.77;;;3.40;;
5718;SDS011;2884;47.734;9.244;2022-08-04T19:28:32;3.73;;;3.10;;
5718;SDS011;2884;47.734;9.244;2022-08-04T19:30:59;3.87;;;3.23;;
5718;SDS011;2884;47.734;9.244;2022-08-04T19:33:24;8.30;;;3.17;;
5718;SDS011;2884;47.734;9.244;2022-08-04T19:35:51;11.97;;;2.80;;
5718;SDS011;2884;47.734;9.244;2022-08-04T19:38:17;4.33;;;2.40;;
5718;SDS011;2884;47.734;9.244;2022-08-04T19:40:45;10.50;;;2.43;;
5718;SDS011;2884;47.734;9.244;2022-08-04T19:43:11;10.67;;;2.70;;
5718;SDS011;2884;47.734;9.244;2022-08-04T19:45:37;4.87;;;3.23;;
5718;SDS011;2884;47.734;9.244;2022-08-04T19:48:03;8.23;;;3.17;;
5718;SDS011;2884;47.734;9.244;2022-08-04T19:50:29;3.53;;;2.60;;
5718;SDS011;2884;47.734;9.244;2022-08-04T19:52:58;7.57;;;2.87;;
5718;SDS011;2884;47.734;9.244;2022-08-04T19:55:24;4.23;;;2.60;;
5718;SDS011;2884;47.734;9.244;2022-08-04T19:57:50;4.97;;;2.40;;
5718;SDS011;2884;47.734;9.244;2022-08-04T20:00:18;10.03;;;3.60;;
5718;SDS011;2884;47.734;9.244;2022-08-04T20:02:45;3.10;;;2.80;;
5718;SDS011;2884;47.734;9.244;2022-08-04T20:05:11;4.10;;;2.97;;
5718;SDS011;2884;47.734;9.244;2022-08-04T20:07:37;11.90;;;2.60;;
5718;SDS011;2884;47.734;9.244;2022-08-04T20:10:04;4.40;;;2.60;;
5718;SDS011;2884;47.734;9.244;2022-08-04T20:12:32;3.70;;;2.60;;
5718;SDS011;2884;47.734;9.244;2022-08-04T20:14:58;8.67;;;3.17;;
5718;SDS011;2884;47.734;9.244;2022-08-04T20:17:26;6.13;;;2.20;;
5718;SDS011;2884;47.734;9.244;2022-08-04T20:19:52;3.00;;;2.70;;
5718;SDS011;2884;47.734;9.244;2022-08-04T20:22:18;3.23;;;2.60;;
5718;SDS011;2884;47.734;9.244;2022-08-04T20:24:46;5.57;;;3.20;;
5718;SDS011;2884;47.734;9.244;2022-08-04T20:27:13;3.30;;;2.80;;
5718;SDS011;2884;47.734;9.244;2022-08-04T20:29:39;4.13;;;2.63;;
5718;SDS011;2884;47.734;9.244;2022-08-04T20:32:05;3.40;;;2.77;;
5718;SDS011;2884;47.734;9.244;2022-08-04T20:34:30;2.90;;;2.63;;